Time;durP1;ratioP1;P1;durP2;ratioP2;P2;SDS_P1;SDS_P2;PMS_P1;PMS_P2;Temp;Humidity;BMP_temperature;BMP_pressure;BME280_temperature;BME280_humidity;BME280_pressure;Samples;Min_cycle;Max_cycle;Signal;HPM_P1;HPM_P2
2023/01/01 00:01:08;;;;;;;21.40;12.10;;;;;;;11.05;100.00;98951.41;102195;1289;73646;-65
2023/01/01 00:03:58;;;;;;;12.10;6.30;;;;;;;11.07;100.00;98944.14;102439;1294;67889;-67
2023/01/01 00:06:47;;;;;;;10.70;5.00;;;;;;;11.08;100.00;98926.62;102615;1282;71715;-65
2023/01/01 00:12:42;;;;;;;10.10;4.30;;;;;;;11.14;100.00;98898.21;102243;1297;59870;-64
2023/01/01 00:15:32;;;;;;;12.50;4.40;;;;;;;11.16;100.00;98895.34;102772;1289;73410;-66
2023/01/01 00:18:20;;;;;;;9.60;4.10;;;;;;;11.18;100.00;98886.73;102500;1297;67908;-65
2023/01/01 00:21:13;;;;;;;8.60;4.20;;;;;;;11.21;100.00;98890.76;102436;1294;73416;-66
2023/01/01 00:24:01;;;;;;;11.70;5.10;;;;;;;11.23;100.00;98888.77;102298;1298;59677;-64
2023/01/01 00:26:50;;;;;;;9.50;3.90;;;;;;;11.24;100.00;98890.39;102396;1297;61140;-66
2023/01/01 00:29:39;;;;;;;10.10;4.60;;;;;;;11.24;100.00;98896.23;102443;1296;73867;-67
2023/01/01 00:32:27;;;;;;;11.70;4.20;;;;;;;11.24;100.00;98897.54;102344;1294;67987;-65
2023/01/01 00:35:17;;;;;;;8.80;3.30;;;;;;;11.28;100.00;98908.73;102553;1299;73565;-65
2023/01/01 00:38:06;;;;;;;8.50;3.60;;;;;;;11.32;100.00;98913.46;102451;1295;60563;-66
2023/01/01 00:40:54;;;;;;;9.30;3.30;;;;;;;11.36;100.00;98917.30;102382;1289;59654;-65
2023/01/01 00:43:45;;;;;;;8.90;3.50;;;;;;;11.43;100.00;98925.52;102497;1299;73053;-64
2023/01/01 00:46:34;;;;;;;8.80;3.00;;;;;;;11.48;100.00;98923.38;102169;1291;67792;-65
2023/01/01 00:49:22;;;;;;;9.30;3.40;;;;;;;11.53;100.00;98918.98;102382;1294;73684;-67
2023/01/01 00:52:11;;;;;;;8.10;3.10;;;;;;;11.59;100.00;98919.13;102384;1299;60164;-66
2023/01/01 00:55:00;;;;;;;8.10;2.70;;;;;;;11.64;100.00;98920.36;102483;1295;60378;-66
2023/01/01 00:57:48;;;;;;;7.40;2.70;;;;;;;11.70;100.00;98921.75;102409;1295;73298;-68
2023/01/01 01:00:47;;;;;;;7.90;2.60;;;;;;;11.75;100.00;98921.90;102560;1295;66310;-66
2023/01/01 01:03:38;;;;;;;7.00;2.50;;;;;;;11.79;100.00;98927.73;102640;1299;73006;-67
2023/01/01 01:06:26;;;;;;;7.10;2.80;;;;;;;11.81;100.00;98927.61;102472;1286;60346;-68
2023/01/01 01:09:15;;;;;;;7.40;2.30;;;;;;;11.84;100.00;98921.96;102581;1290;61378;-65
2023/01/01 01:12:03;;;;;;;9.50;2.70;;;;;;;11.85;100.00;98921.98;102534;1299;73309;-66
2023/01/01 01:15:07;;;;;;;7.10;2.50;;;;;;;11.87;100.00;98916.64;102239;1286;68826;-67
2023/01/01 01:17:55;;;;;;;7.20;2.60;;;;;;;11.88;100.00;98913.83;102527;1294;73673;-65
2023/01/01 01:20:50;;;;;;;8.60;2.20;;;;;;;11.90;100.00;98910.28;102337;1299;59763;-66
2023/01/01 01:23:38;;;;;;;9.90;2.40;;;;;;;11.92;100.00;98914.88;102339;1299;60636;-66
2023/01/01 01:26:31;;;;;;;7.90;2.40;;;;;;;11.98;100.00;98904.45;102370;1289;73595;-66
2023/01/01 01:29:20;;;;;;;6.50;2.30;;;;;;;12.03;100.00;98905.69;102430;1297;67901;-64
2023/01/01 01:32:11;;;;;;;6.40;2.40;;;;;;;12.06;100.00;98899.64;102390;1295;72725;-66
2023/01/01 01:34:59;;;;;;;7.70;3.20;;;;;;;12.11;100.00;98903.07;102454;1299;60362;-65
2023/01/01 01:37:48;;;;;;;7.60;2.40;;;;;;;12.15;100.00;98903.97;102458;1292;60028;-65
2023/01/01 01:40:41;;;;;;;8.30;2.40;;;;;;;12.18;100.00;98901.65;102504;1299;73925;-66
2023/01/01 01:43:33;;;;;;;7.90;2.30;;;;;;;12.21;99.99;98900.66;102543;1293;68393;-67
2023/01/01 01:46:32;;;;;;;6.40;2.20;;;;;;;12.24;99.99;98897.84;102409;1301;73042;-70
2023/01/01 01:49:27;;;;;;;6.70;2.40;;;;;;;12.25;99.21;98897.83;102474;1297;59773;-65
2023/01/01 01:52:16;;;;;;;8.60;2.30;;;;;;;12.29;99.02;98908.34;102484;1291;59965;-64
2023/01/01 01:55:09;;;;;;;8.60;2.80;;;;;;;12.30;98.15;98914.55;102534;1294;71912;-64
2023/01/01 01:57:58;;;;;;;7.80;2.40;;;;;;;12.29;97.41;98911.31;102522;1295;68217;-65
2023/01/01 02:00:47;;;;;;;7.40;2.10;;;;;;;12.33;97.17;98915.96;102477;1297;73784;-66
2023/01/01 02:03:45;;;;;;;6.10;2.40;;;;;;;12.34;96.50;98913.20;102516;1291;59760;-66
2023/01/01 02:06:37;;;;;;;6.80;2.60;;;;;;;12.35;95.60;98918.05;102495;1297;61094;-66
2023/01/01 02:09:26;;;;;;;8.20;2.20;;;;;;;12.37;94.82;98915.19;102541;1297;72790;-65
2023/01/01 02:12:14;;;;;;;7.10;2.40;;;;;;;12.38;94.21;98918.44;102373;1291;68203;-66
2023/01/01 02:15:03;;;;;;;6.70;2.10;;;;;;;12.39;94.10;98915.27;102551;1299;73670;-65
2023/01/01 02:18:02;;;;;;;7.50;2.20;;;;;;;12.39;93.88;98907.52;102326;1299;59770;-67
2023/01/01 02:21:13;;;;;;;8.30;2.40;;;;;;;12.39;93.04;98903.40;102443;1299;61244;-65
2023/01/01 02:24:32;;;;;;;6.70;2.30;;;;;;;12.36;92.79;98897.34;102446;1290;72521;-66
2023/01/01 02:28:35;;;;;;;8.10;2.20;;;;;;;12.31;92.95;98901.38;102548;1296;69238;-66
2023/01/01 02:31:34;;;;;;;8.40;2.80;;;;;;;12.26;92.35;98891.23;102341;1294;146677;-65
2023/01/01 02:34:28;;;;;;;8.90;2.50;;;;;;;12.25;92.13;98892.41;102395;1298;60681;-64
2023/01/01 02:37:20;;;;;;;7.90;2.50;;;;;;;12.24;91.69;98895.36;102217;1297;61142;-64
2023/01/01 02:40:09;;;;;;;9.10;2.90;;;;;;;12.23;91.49;98891.84;102381;1299;72785;-65
2023/01/01 02:42:57;;;;;;;9.00;2.70;;;;;;;12.23;91.04;98895.81;102235;1299;68564;-64
2023/01/01 02:45:46;;;;;;;7.70;2.50;;;;;;;12.24;90.20;98898.65;102513;1298;73218;-65
2023/01/01 02:48:39;;;;;;;7.90;2.10;;;;;;;12.29;89.77;98894.54;102493;1299;59671;-64
2023/01/01 02:51:33;;;;;;;16.00;2.30;;;;;;;12.30;89.37;98892.95;102229;1299;61496;-65
2023/01/01 02:54:36;;;;;;;8.10;2.50;;;;;;;12.33;88.96;98895.63;102599;1299;74106;-64
2023/01/01 02:57:45;;;;;;;10.00;2.70;;;;;;;12.34;88.71;98897.49;102491;1295;67665;-65
2023/01/01 03:00:34;;;;;;;8.70;2.50;;;;;;;12.34;87.86;98895.50;102199;1295;73249;-64
2023/01/01 03:03:42;;;;;;;7.70;2.20;;;;;;;12.38;87.31;98891.92;102371;1299;60333;-64
2023/01/01 03:07:01;;;;;;;8.30;2.50;;;;;;;12.43;86.14;98889.43;102251;1299;60309;-64
2023/01/01 03:11:04;;;;;;;8.10;2.70;;;;;;;12.47;86.39;98887.42;102477;1296;73996;-65
2023/01/01 03:13:55;;;;;;;9.30;2.70;;;;;;;12.49;85.24;98898.48;101994;1302;66899;-64
2023/01/01 03:17:26;;;;;;;8.10;2.80;;;;;;;12.52;84.18;98913.59;102132;1303;73215;-63
2023/01/01 03:20:24;;;;;;;8.20;2.40;;;;;;;12.57;83.86;98903.48;101814;1302;59741;-65
2023/01/01 03:23:21;;;;;;;7.50;2.40;;;;;;;12.61;83.55;98911.77;101649;1308;60107;-64
2023/01/01 03:26:12;;;;;;;9.50;3.30;;;;;;;12.63;82.77;98916.73;101922;1305;72774;-65
2023/01/01 03:29:04;;;;;;;8.70;2.60;;;;;;;12.66;81.72;98920.73;101704;1294;67928;-63
2023/01/01 03:31:57;;;;;;;8.10;2.40;;;;;;;12.72;81.75;98916.55;101987;1302;73759;-64
2023/01/01 03:34:52;;;;;;;8.70;2.70;;;;;;;12.76;81.47;98912.89;101933;1302;59694;-65
2023/01/01 03:37:44;;;;;;;9.00;2.70;;;;;;;12.79;80.77;98906.35;101958;1301;60894;-65
2023/01/01 03:40:37;;;;;;;7.50;2.60;;;;;;;12.82;80.59;98911.97;101868;1305;74072;-64
2023/01/01 03:43:52;;;;;;;9.00;3.30;;;;;;;12.83;80.30;98906.80;101875;1308;67857;-64
2023/01/01 03:46:41;;;;;;;11.50;2.50;;;;;;;12.85;79.63;98911.25;101883;1308;72693;-64
2023/01/01 03:49:29;;;;;;;10.30;3.20;;;;;;;12.87;79.28;98919.63;102089;1293;60443;-65
2023/01/01 03:53:00;;;;;;;10.60;2.80;;;;;;;12.89;78.56;98918.33;102510;1291;61825;-64
2023/01/01 03:56:13;;;;;;;7.00;2.50;;;;;;;12.90;78.35;98919.05;102730;1298;73015;-66
2023/01/01 03:59:37;;;;;;;8.10;2.70;;;;;;;12.92;77.31;98925.23;102521;1295;67795;-62
2023/01/01 04:02:41;;;;;;;8.10;2.50;;;;;;;12.97;77.49;98927.97;102468;1294;73135;-64
2023/01/01 04:05:34;;;;;;;9.70;3.20;;;;;;;12.99;76.37;98924.74;102415;1295;59717;-65
2023/01/01 04:08:23;;;;;;;9.80;2.70;;;;;;;13.01;76.32;98926.52;102462;1290;61229;-64
2023/01/01 04:14:40;;;;;;;10.20;2.70;;;;;;;12.98;76.06;98932.45;102429;1299;68707;-66
2023/01/01 04:17:28;;;;;;;9.50;2.50;;;;;;;12.99;75.74;98934.31;102384;1294;72775;-64
2023/01/01 04:20:20;;;;;;;9.20;2.60;;;;;;;13.01;75.66;98935.36;102267;1299;59642;-66
2023/01/01 04:23:09;;;;;;;7.20;2.50;;;;;;;13.01;75.43;98933.41;102466;1294;60433;-66
2023/01/01 04:26:00;;;;;;;9.50;2.90;;;;;;;13.01;75.18;98935.23;102222;1301;73298;-65
2023/01/01 04:28:51;;;;;;;11.10;3.30;;;;;;;13.03;75.07;98934.63;102360;1302;67849;-67
2023/01/01 04:31:39;;;;;;;9.40;3.00;;;;;;;13.06;74.41;98924.73;102435;1299;73602;-67
2023/01/01 04:34:27;;;;;;;10.20;3.00;;;;;;;13.08;74.46;98936.63;102270;1297;59682;-65
2023/01/01 04:37:16;;;;;;;10.30;3.40;;;;;;;13.09;74.73;98940.26;102483;1299;61307;-65
2023/01/01 04:40:06;;;;;;;10.40;3.00;;;;;;;13.08;74.36;98933.02;102404;1288;72228;-65
2023/01/01 04:42:54;;;;;;;9.20;3.20;;;;;;;13.09;74.56;98938.98;102469;1299;67920;-66
2023/01/01 04:45:43;;;;;;;10.20;2.90;;;;;;;13.10;74.05;98937.02;102503;1299;73688;-68
2023/01/01 04:48:36;;;;;;;8.50;2.70;;;;;;;13.13;73.85;98932.16;102406;1298;59740;-66
2023/01/01 04:51:24;;;;;;;9.90;2.90;;;;;;;13.13;73.45;98945.34;102357;1299;60284;-64
2023/01/01 04:54:13;;;;;;;8.50;2.40;;;;;;;13.14;72.80;98944.88;102337;1299;74017;-63
2023/01/01 04:57:02;;;;;;;11.50;3.00;;;;;;;13.15;73.16;98944.75;102475;1289;68809;-66
2023/01/01 04:59:51;;;;;;;9.00;2.70;;;;;;;13.15;72.95;98942.66;102425;1294;71943;-64
2023/01/01 05:02:39;;;;;;;12.60;3.30;;;;;;;13.11;72.88;98942.87;102473;1291;59755;-65
2023/01/01 05:05:28;;;;;;;10.70;2.90;;;;;;;13.07;72.78;98946.70;102360;1298;61446;-64
2023/01/01 05:08:16;;;;;;;10.40;2.80;;;;;;;13.03;73.02;98948.83;102618;1295;73836;-64
2023/01/01 05:11:29;;;;;;;11.80;2.80;;;;;;;12.98;72.83;98947.47;102529;1295;68013;-65
2023/01/01 05:14:17;;;;;;;12.30;2.80;;;;;;;12.94;72.52;98944.65;102381;1293;73814;-64
2023/01/01 05:17:05;;;;;;;10.50;2.80;;;;;;;12.92;73.02;98951.29;102635;1289;59655;-64
2023/01/01 05:19:54;;;;;;;13.70;3.10;;;;;;;12.88;72.83;98965.75;102466;1299;59842;-64
2023/01/01 05:22:46;;;;;;;10.10;3.10;;;;;;;12.87;72.81;98968.39;102195;1290;73735;-65
2023/01/01 05:25:34;;;;;;;10.90;3.20;;;;;;;12.84;72.78;98978.59;102417;1295;67872;-64
2023/01/01 05:28:23;;;;;;;11.00;2.90;;;;;;;12.82;72.76;98981.18;102420;1294;73388;-63
2023/01/01 05:31:18;;;;;;;10.40;3.20;;;;;;;12.80;72.98;98987.78;102184;1295;59718;-63
2023/01/01 05:34:06;;;;;;;10.40;2.70;;;;;;;12.77;73.06;98986.80;102477;1299;61365;-65
2023/01/01 05:36:54;;;;;;;10.50;3.10;;;;;;;12.77;73.04;98990.23;102366;1299;74276;-64
2023/01/01 05:39:43;;;;;;;10.70;3.00;;;;;;;12.79;72.65;98996.42;102168;1295;67862;-64
2023/01/01 05:42:32;;;;;;;10.30;3.20;;;;;;;12.82;72.49;98991.30;102599;1295;73080;-64
2023/01/01 05:45:23;;;;;;;14.40;3.30;;;;;;;12.86;72.36;98984.81;102427;1298;59635;-64
2023/01/01 05:48:11;;;;;;;10.00;2.90;;;;;;;12.90;72.23;98977.63;102443;1292;61989;-64
2023/01/01 05:51:09;;;;;;;8.80;3.50;;;;;;;12.94;71.85;98974.39;102456;1297;72834;-65
2023/01/01 05:53:58;;;;;;;12.80;3.40;;;;;;;12.97;71.47;98956.61;102466;1298;68604;-65
2023/01/01 05:56:45;;;;;;;10.50;3.30;;;;;;;13.02;70.82;98955.46;102378;1298;72679;-65
2023/01/01 05:59:34;;;;;;;9.60;2.90;;;;;;;13.06;70.53;98953.94;102451;1299;59806;-65
2023/01/01 06:02:22;;;;;;;12.60;3.40;;;;;;;13.08;70.55;98955.42;102473;1299;61361;-65
2023/01/01 06:05:11;;;;;;;13.80;4.50;;;;;;;13.09;70.45;98958.39;102468;1291;72954;-66
2023/01/01 06:07:59;;;;;;;9.30;4.10;;;;;;;13.08;70.78;98968.46;102465;1298;67719;-66
2023/01/01 06:10:48;;;;;;;12.00;4.20;;;;;;;13.05;70.61;98970.86;102191;1289;73758;-66
2023/01/01 06:13:36;;;;;;;11.60;3.40;;;;;;;13.03;70.51;98975.02;102383;1291;60552;-66
2023/01/01 06:16:26;;;;;;;11.60;3.80;;;;;;;13.01;70.65;98977.36;102532;1298;61211;-65
2023/01/01 06:19:16;;;;;;;13.20;4.50;;;;;;;12.99;70.56;98982.27;102359;1297;73941;-67
2023/01/01 06:22:04;;;;;;;11.50;3.90;;;;;;;12.99;70.44;98981.35;102342;1290;68601;-65
2023/01/01 06:24:53;;;;;;;12.70;4.60;;;;;;;12.98;70.30;98999.15;102356;1295;73720;-64
2023/01/01 06:27:41;;;;;;;13.30;4.30;;;;;;;12.97;70.14;98997.58;102297;1299;59876;-65
2023/01/01 06:30:33;;;;;;;11.90;4.80;;;;;;;12.99;70.02;99001.54;102498;1292;60346;-64
2023/01/01 06:33:21;;;;;;;12.00;4.40;;;;;;;13.00;69.85;99012.75;102329;1299;74061;-65
2023/01/01 06:36:15;;;;;;;14.70;5.10;;;;;;;13.01;70.09;99018.59;102449;1291;67518;-64
2023/01/01 06:39:03;;;;;;;11.50;5.10;;;;;;;13.01;69.94;99021.52;102384;1294;72382;-65
2023/01/01 06:41:52;;;;;;;14.00;5.40;;;;;;;13.03;69.75;99027.41;102452;1295;59984;-67
2023/01/01 06:44:40;;;;;;;13.40;5.40;;;;;;;13.06;69.55;99032.63;102339;1291;60454;-65
2023/01/01 06:47:33;;;;;;;15.40;5.20;;;;;;;13.08;69.33;99036.08;102514;1299;73560;-69
2023/01/01 06:50:21;;;;;;;13.20;5.50;;;;;;;13.11;69.17;99039.39;102425;1291;67882;-67
2023/01/01 06:53:09;;;;;;;15.10;5.40;;;;;;;13.12;69.07;99045.34;102393;1291;72673;-67
2023/01/01 06:55:58;;;;;;;15.20;5.30;;;;;;;13.15;69.09;99045.79;102079;1289;59691;-64
2023/01/01 06:58:46;;;;;;;14.30;5.50;;;;;;;13.17;69.23;99048.24;102168;1299;60059;-65
2023/01/01 07:01:40;;;;;;;16.30;6.00;;;;;;;13.18;69.12;99057.74;102479;1291;73983;-65
2023/01/01 07:04:32;;;;;;;16.60;5.70;;;;;;;13.19;69.33;99048.00;102188;1298;67916;-66
2023/01/01 07:07:20;;;;;;;11.30;4.60;;;;;;;13.20;69.35;99044.27;102413;1290;73653;-67
2023/01/01 07:10:09;;;;;;;13.60;5.50;;;;;;;13.25;68.96;99053.63;102333;1299;59766;-68
2023/01/01 07:12:57;;;;;;;14.90;5.20;;;;;;;13.28;69.56;99062.86;102369;1295;61339;-65
2023/01/01 07:15:45;;;;;;;15.00;6.00;;;;;;;13.27;69.53;99067.65;102603;1295;71886;-66
2023/01/01 07:18:34;;;;;;;13.80;5.20;;;;;;;13.25;69.67;99074.02;102487;1299;70799;-66
2023/01/01 07:21:46;;;;;;;13.80;5.80;;;;;;;13.25;69.41;99079.78;102453;1299;73736;-64
2023/01/01 07:24:35;;;;;;;14.50;5.20;;;;;;;13.25;69.55;99076.09;102388;1299;59782;-65
2023/01/01 07:27:26;;;;;;;19.90;5.10;;;;;;;13.24;69.39;99066.32;102366;1294;61080;-66
2023/01/01 07:30:14;;;;;;;16.10;5.00;;;;;;;13.26;69.40;99068.98;102385;1295;73896;-67
2023/01/01 07:33:02;;;;;;;12.60;4.00;;;;;;;13.26;69.41;99063.44;102392;1297;67543;-68
2023/01/01 07:35:50;;;;;;;15.80;4.80;;;;;;;13.27;69.54;99070.72;102187;1299;73704;-66
2023/01/01 07:38:38;;;;;;;12.80;4.50;;;;;;;13.25;69.83;99068.17;102315;1292;59695;-69
2023/01/01 07:41:27;;;;;;;13.20;4.10;;;;;;;13.24;69.53;99072.54;102485;1299;60901;-68
2023/01/01 07:44:15;;;;;;;12.40;4.00;;;;;;;13.24;69.33;99079.28;102484;1283;74005;-71
2023/01/01 07:47:13;;;;;;;11.80;4.00;;;;;;;13.23;68.91;99070.89;102552;1297;67938;-69
2023/01/01 07:50:01;;;;;;;15.00;4.80;;;;;;;13.26;68.69;99076.23;102632;1297;72649;-68
2023/01/01 07:52:49;;;;;;;12.60;4.50;;;;;;;13.28;68.85;99077.90;102301;1289;59778;-67
2023/01/01 07:55:38;;;;;;;11.70;4.70;;;;;;;13.28;68.32;99082.34;102544;1294;60325;-68
2023/01/01 07:58:26;;;;;;;14.20;4.80;;;;;;;13.28;68.25;99089.22;102778;1299;73542;-67
2023/01/01 08:01:14;;;;;;;11.90;4.90;;;;;;;13.29;68.09;99097.88;102477;1291;67781;-68
2023/01/01 08:04:04;;;;;;;12.00;4.50;;;;;;;13.30;67.73;99088.02;102279;1291;71951;-68
2023/01/01 08:06:53;;;;;;;12.20;4.50;;;;;;;13.34;67.66;99088.48;102334;1296;60110;-69
2023/01/01 08:09:41;;;;;;;12.60;4.50;;;;;;;13.36;67.33;99092.09;102372;1292;59840;-70
2023/01/01 08:12:29;;;;;;;13.20;5.00;;;;;;;13.38;66.92;99094.38;102370;1291;73466;-68
2023/01/01 08:15:18;;;;;;;13.70;5.70;;;;;;;13.42;66.72;99095.48;102441;1289;68879;-68
2023/01/01 08:18:08;;;;;;;13.40;4.80;;;;;;;13.46;66.39;99096.50;102395;1294;71318;-70
2023/01/01 08:20:56;;;;;;;14.20;3.80;;;;;;;13.51;66.21;99097.42;102315;1299;59711;-66
2023/01/01 08:23:45;;;;;;;12.20;3.70;;;;;;;13.54;66.18;99106.02;102303;1294;60048;-66
2023/01/01 08:26:36;;;;;;;9.70;3.40;;;;;;;13.55;66.01;99120.19;102349;1294;72831;-67
2023/01/01 08:29:25;;;;;;;11.50;3.80;;;;;;;13.54;65.87;99121.66;102215;1291;67872;-65
2023/01/01 08:32:13;;;;;;;10.20;3.40;;;;;;;13.55;66.02;99126.27;102152;1291;72954;-67
2023/01/01 08:35:01;;;;;;;11.60;3.90;;;;;;;13.54;66.05;99125.80;102465;1291;60052;-67
2023/01/01 08:37:52;;;;;;;14.60;3.90;;;;;;;13.53;65.73;99122.52;102167;1281;60332;-66
2023/01/01 08:40:41;;;;;;;11.70;3.90;;;;;;;13.55;65.59;99123.70;102566;1294;72986;-68
2023/01/01 08:43:29;;;;;;;11.30;3.60;;;;;;;13.60;65.65;99120.70;102352;1299;68824;-68
2023/01/01 08:46:20;;;;;;;9.10;3.30;;;;;;;13.66;65.34;99118.15;102385;1298;71537;-66
2023/01/01 08:49:09;;;;;;;13.70;4.00;;;;;;;13.72;64.81;99111.23;102250;1299;59756;-65
2023/01/01 08:51:57;;;;;;;11.90;3.90;;;;;;;13.80;64.69;99118.73;102409;1299;61312;-66
2023/01/01 08:54:46;;;;;;;10.00;3.40;;;;;;;13.86;64.32;99126.94;102465;1299;74023;-67
2023/01/01 08:57:37;;;;;;;10.40;3.70;;;;;;;13.89;64.33;99131.33;102422;1299;67822;-67
2023/01/01 09:00:25;;;;;;;9.70;3.60;;;;;;;13.94;64.05;99136.39;102485;1299;71815;-68
2023/01/01 09:03:16;;;;;;;11.50;3.60;;;;;;;14.00;63.87;99137.73;102479;1294;59763;-66
2023/01/01 09:06:06;;;;;;;14.30;3.90;;;;;;;14.05;63.52;99140.93;102459;1297;59783;-67
2023/01/01 09:08:54;;;;;;;10.50;3.50;;;;;;;14.13;63.01;99133.30;102466;1291;72141;-70
2023/01/01 09:12:13;;;;;;;11.80;3.60;;;;;;;14.22;62.79;99139.61;102346;1291;68289;-68
2023/01/01 09:15:01;;;;;;;11.10;3.70;;;;;;;14.35;62.72;99142.57;101926;1305;72554;-68
2023/01/01 09:17:50;;;;;;;12.90;3.80;;;;;;;14.47;62.27;99151.81;101973;1302;59823;-68
2023/01/01 09:20:39;;;;;;;10.60;3.30;;;;;;;14.57;61.16;99158.20;101817;1297;61201;-69
2023/01/01 09:23:27;;;;;;;9.70;3.50;;;;;;;14.72;61.16;99160.02;101953;1303;72137;-67
2023/01/01 09:26:15;;;;;;;8.60;3.10;;;;;;;14.86;60.37;99152.77;101916;1300;68035;-68
2023/01/01 09:29:06;;;;;;;10.10;3.40;;;;;;;15.04;59.99;99152.52;101872;1294;73662;-71
2023/01/01 09:31:55;;;;;;;11.80;3.80;;;;;;;15.25;58.93;99159.72;101846;1305;59700;-68
2023/01/01 09:34:44;;;;;;;16.40;4.50;;;;;;;15.55;58.45;99158.45;101699;1305;61368;-65
2023/01/01 09:37:39;;;;;;;14.20;4.70;;;;;;;15.91;57.51;99154.08;102137;1302;73993;-65
2023/01/01 09:40:57;;;;;;;14.00;3.60;;;;;;;16.33;55.79;99147.07;101884;1303;68638;-68
2023/01/01 09:44:26;;;;;;;11.80;4.20;;;;;;;16.76;54.02;99149.02;101660;1302;72993;-68
2023/01/01 09:47:32;;;;;;;12.00;4.00;;;;;;;17.33;52.54;99156.09;101983;1303;59734;-68
2023/01/01 09:50:31;;;;;;;12.40;3.80;;;;;;;17.70;50.69;99157.58;102140;1302;61263;-68
2023/01/01 09:53:31;;;;;;;13.10;4.50;;;;;;;17.70;50.38;99164.38;102335;1292;73611;-68
2023/01/01 09:56:29;;;;;;;12.80;3.90;;;;;;;18.02;49.69;99158.98;102430;1297;68880;-69
2023/01/01 09:59:17;;;;;;;12.30;4.00;;;;;;;18.29;48.67;99163.20;102174;1291;72674;-67
2023/01/01 10:02:29;;;;;;;11.50;4.10;;;;;;;18.17;48.04;99156.25;102386;1290;59946;-66
2023/01/01 10:05:38;;;;;;;15.70;4.60;;;;;;;18.19;48.05;99144.35;102494;1295;60340;-67
2023/01/01 10:08:35;;;;;;;12.70;4.10;;;;;;;18.64;47.64;99138.34;102346;1291;72718;-66
2023/01/01 10:11:48;;;;;;;11.70;3.70;;;;;;;18.28;47.30;99135.81;102407;1291;67784;-68
2023/01/01 10:14:50;;;;;;;11.00;3.70;;;;;;;17.67;48.55;99139.27;102634;1294;70977;-66
2023/01/01 10:17:49;;;;;;;11.60;3.70;;;;;;;17.25;49.47;99136.34;102362;1299;59672;-67
2023/01/01 10:20:45;;;;;;;10.80;3.60;;;;;;;17.05;50.32;99140.35;102430;1295;60192;-66
2023/01/01 10:24:16;;;;;;;11.90;4.30;;;;;;;16.81;50.81;99152.41;102518;1292;73997;-66
2023/01/01 10:27:06;;;;;;;14.40;5.30;;;;;;;16.86;50.71;99153.45;102392;1294;68586;-66
2023/01/01 10:29:56;;;;;;;11.90;3.80;;;;;;;17.01;50.58;99156.68;102327;1299;73740;-68
2023/01/01 10:32:54;;;;;;;9.80;3.50;;;;;;;17.13;50.09;99153.63;102142;1299;59755;-67
2023/01/01 10:35:49;;;;;;;14.90;4.90;;;;;;;17.08;49.91;99154.49;102478;1299;61094;-67
2023/01/01 10:38:38;;;;;;;13.10;4.20;;;;;;;16.81;50.39;99166.58;102225;1294;73140;-67
2023/01/01 10:41:27;;;;;;;11.80;3.90;;;;;;;16.76;50.83;99166.83;102403;1294;68615;-66
2023/01/01 10:44:26;;;;;;;12.40;3.80;;;;;;;17.10;49.85;99169.45;102415;1292;73048;-67
2023/01/01 10:47:28;;;;;;;16.10;4.70;;;;;;;17.30;49.27;99169.99;102419;1294;60052;-65
2023/01/01 10:50:16;;;;;;;11.10;3.80;;;;;;;17.59;48.07;99161.95;102314;1283;59747;-65
2023/01/01 10:53:04;;;;;;;12.00;4.10;;;;;;;17.80;48.13;99160.51;102220;1289;73830;-70
2023/01/01 10:56:11;;;;;;;12.50;4.30;;;;;;;17.91;47.69;99156.28;102330;1291;68853;-68
2023/01/01 10:58:59;;;;;;;12.80;4.10;;;;;;;17.93;47.20;99146.16;102411;1297;72788;-69
2023/01/01 11:02:18;;;;;;;11.90;3.80;;;;;;;17.79;47.27;99151.40;102431;1290;59608;-70
2023/01/01 11:05:19;;;;;;;12.00;3.60;;;;;;;17.33;48.09;99159.33;102575;1299;61310;-70
2023/01/01 11:08:18;;;;;;;13.00;3.70;;;;;;;17.01;48.93;99161.05;102346;1291;74255;-69
2023/01/01 11:11:06;;;;;;;10.80;3.50;;;;;;;16.91;49.34;99162.54;102474;1298;67527;-68
2023/01/01 11:14:05;;;;;;;12.60;3.50;;;;;;;16.74;49.48;99169.02;102419;1291;72902;-66
2023/01/01 11:16:55;;;;;;;13.70;3.80;;;;;;;16.60;49.75;99180.14;102688;1297;59744;-66
2023/01/01 11:19:48;;;;;;;11.10;4.00;;;;;;;16.35;50.26;99186.03;102395;1294;60078;-71
2023/01/01 11:22:49;;;;;;;15.90;3.80;;;;;;;16.10;50.89;99179.77;102485;1299;73481;-66
2023/01/01 11:25:38;;;;;;;11.70;4.20;;;;;;;15.90;51.47;99184.05;102413;1297;67893;-70
2023/01/01 11:28:30;;;;;;;12.10;4.20;;;;;;;15.69;51.75;99188.96;102351;1298;72870;-67
2023/01/01 11:31:19;;;;;;;12.10;4.10;;;;;;;15.55;52.43;99198.68;102400;1295;59674;-65
2023/01/01 11:34:40;;;;;;;12.00;4.00;;;;;;;15.44;52.69;99199.62;102434;1297;61125;-68
2023/01/01 11:37:36;;;;;;;10.80;4.00;;;;;;;15.34;53.19;99200.34;102402;1291;73613;-68
2023/01/01 11:40:37;;;;;;;10.50;4.00;;;;;;;15.29;53.43;99200.85;102442;1299;68830;-68
2023/01/01 11:43:27;;;;;;;14.90;4.10;;;;;;;15.23;53.41;99203.38;102243;1291;71680;-66
2023/01/01 11:46:23;;;;;;;10.00;3.90;;;;;;;15.17;53.22;99217.93;102389;1297;59682;-65
2023/01/01 11:49:23;;;;;;;10.80;3.30;;;;;;;15.20;53.40;99225.45;102401;1299;60356;-66
2023/01/01 11:52:49;;;;;;;13.80;4.20;;;;;;;15.26;53.18;99228.70;102192;1291;74047;-67
2023/01/01 11:55:43;;;;;;;11.00;4.00;;;;;;;15.39;53.16;99229.61;101953;1301;67769;-67
2023/01/01 11:58:35;;;;;;;11.10;3.80;;;;;;;15.41;52.93;99228.52;101707;1303;73913;-65
2023/01/01 12:01:38;;;;;;;13.30;3.60;;;;;;;15.45;52.84;99231.63;101770;1287;59737;-67
2023/01/01 12:05:01;;;;;;;10.70;3.40;;;;;;;15.47;52.92;99231.21;102038;1302;61229;-66
2023/01/01 12:07:51;;;;;;;14.40;3.70;;;;;;;15.48;53.04;99236.27;101960;1302;73877;-68
2023/01/01 12:10:53;;;;;;;10.90;3.50;;;;;;;15.51;52.75;99237.64;102238;1301;67878;-68
2023/01/01 12:13:55;;;;;;;10.40;3.50;;;;;;;15.54;52.62;99240.91;101625;1305;73054;-67
2023/01/01 12:16:54;;;;;;;11.70;3.10;;;;;;;15.50;52.51;99231.47;102247;1305;59750;-68
2023/01/01 12:20:01;;;;;;;11.60;3.30;;;;;;;15.35;52.70;99232.73;101972;1297;60094;-67
2023/01/01 12:22:50;;;;;;;10.10;2.90;;;;;;;15.24;52.99;99253.80;101872;1303;72937;-66
2023/01/01 12:25:45;;;;;;;10.90;3.00;;;;;;;15.15;53.40;99257.09;101725;1298;67599;-69
2023/01/01 12:28:42;;;;;;;9.10;2.90;;;;;;;15.02;53.75;99253.84;101696;1297;72675;-65
2023/01/01 12:31:37;;;;;;;11.70;3.30;;;;;;;14.86;53.98;99260.38;102672;1299;59765;-65
2023/01/01 12:34:46;;;;;;;9.40;3.10;;;;;;;14.78;54.44;99280.89;102398;1299;60156;-65
2023/01/01 12:38:09;;;;;;;10.90;3.20;;;;;;;14.67;54.83;99281.35;102457;1291;74050;-69
2023/01/01 12:41:10;;;;;;;8.20;2.90;;;;;;;14.55;55.17;99293.00;102259;1291;67274;-68
2023/01/01 12:44:37;;;;;;;11.10;3.20;;;;;;;14.46;55.51;99297.89;102531;1297;72982;-67
2023/01/01 12:48:21;;;;;;;9.60;2.80;;;;;;;14.32;55.81;99306.63;102671;1299;59753;-65
2023/01/01 12:51:52;;;;;;;10.10;3.10;;;;;;;14.25;56.15;99316.86;102477;1299;59982;-69
2023/01/01 12:55:21;;;;;;;11.10;3.00;;;;;;;14.17;56.40;99306.30;102377;1292;74081;-66
2023/01/01 12:58:36;;;;;;;12.10;3.30;;;;;;;14.12;56.27;99310.33;102409;1297;68293;-68
2023/01/01 13:01:34;;;;;;;12.80;3.30;;;;;;;14.10;56.65;99310.38;102380;1298;72157;-68
2023/01/01 13:04:23;;;;;;;10.10;3.30;;;;;;;14.06;56.96;99316.68;102235;1299;59750;-68
2023/01/01 13:07:12;;;;;;;11.30;3.10;;;;;;;14.01;56.87;99312.08;102426;1289;61091;-68
2023/01/01 13:10:33;;;;;;;10.40;2.90;;;;;;;13.98;57.03;99308.98;102402;1299;73405;-68
2023/01/01 13:13:21;;;;;;;11.00;2.80;;;;;;;13.91;57.31;99301.93;102687;1292;67811;-68
2023/01/01 13:16:12;;;;;;;9.70;2.70;;;;;;;13.88;57.48;99293.23;102779;1297;71684;-68
2023/01/01 13:19:01;;;;;;;9.00;3.10;;;;;;;13.83;57.60;99296.73;102478;1299;59699;-68
2023/01/01 13:21:49;;;;;;;12.30;2.90;;;;;;;13.79;57.70;99294.13;102435;1290;60787;-67
2023/01/01 13:24:37;;;;;;;8.70;2.50;;;;;;;13.75;57.98;99310.08;102290;1292;74057;-66
2023/01/01 13:28:01;;;;;;;10.00;3.00;;;;;;;13.69;58.11;99314.21;102416;1298;68128;-66
2023/01/01 13:30:51;;;;;;;10.60;2.90;;;;;;;13.62;58.37;99311.06;102313;1294;73766;-70
2023/01/01 13:33:39;;;;;;;10.10;2.90;;;;;;;13.56;58.37;99317.65;102676;1299;59639;-68